sensor_id;sensor_type;location;lat;lon;timestamp;temperature;humidity
13231;DHT22;6681;53.254;10.398;2023-06-10T00:01:24;17.10;91.70
13231;DHT22;6681;53.254;10.398;2023-06-10T00:03:50;17.10;99.90
13231;DHT22;6681;53.254;10.398;2023-06-10T00:06:17;17.10;1.00
13231;DHT22;6681;53.254;10.398;2023-06-10T00:08:43;17.20;99.90
13231;DHT22;6681;53.254;10.398;2023-06-10T00:11:09;17.10;82.90
13231;DHT22;6681;53.254;10.398;2023-06-10T00:13:35;15.80;99.90
13231;DHT22;6681;53.254;10.398;2023-06-10T00:16:02;16.90;99.90
13231;DHT22;6681;53.254;10.398;2023-06-10T00:18:28;16.90;1.00
13231;DHT22;6681;53.254;10.398;2023-06-10T00:20:57;16.80;1.00
13231;DHT22;6681;53.254;10.398;2023-06-10T00:23:22;16.80;1.00
13231;DHT22;6681;53.254;10.398;2023-06-10T00:25:50;16.80;99.90
13231;DHT22;6681;53.254;10.398;2023-06-10T00:28:16;16.70;99.90
13231;DHT22;6681;53.254;10.398;2023-06-10T00:30:41;16.70;1.00
13231;DHT22;6681;53.254;10.398;2023-06-10T00:33:07;16.70;1.00
13231;DHT22;6681;53.254;10.398;2023-06-10T00:35:32;16.60;37.40
13231;DHT22;6681;53.254;10.398;2023-06-10T00:37:58;16.50;99.90
13231;DHT22;6681;53.254;10.398;2023-06-10T00:40:24;16.50;99.90
13231;DHT22;6681;53.254;10.398;2023-06-10T00:42:49;16.40;99.90
13231;DHT22;6681;53.254;10.398;2023-06-10T00:45:15;16.40;99.90
13231;DHT22;6681;53.254;10.398;2023-06-10T00:47:41;16.50;99.90
13231;DHT22;6681;53.254;10.398;2023-06-10T00:50:07;16.50;99.90
13231;DHT22;6681;53.254;10.398;2023-06-10T00:52:33;16.50;1.00
13231;DHT22;6681;53.254;10.398;2023-06-10T00:55:00;16.40;1.00
13231;DHT22;6681;53.254;10.398;2023-06-10T00:57:26;16.20;1.00
13231;DHT22;6681;53.254;10.398;2023-06-10T00:59:52;16.20;1.00
13231;DHT22;6681;53.254;10.398;2023-06-10T01:02:18;16.10;1.00
13231;DHT22;6681;53.254;10.398;2023-06-10T01:04:44;16.10;16.50
13231;DHT22;6681;53.254;10.398;2023-06-10T01:12:41;16.00;99.90
13231;DHT22;6681;53.254;10.398;2023-06-10T01:15:17;15.90;99.90
13231;DHT22;6681;53.254;10.398;2023-06-10T01:17:56;15.80;85.20
13231;DHT22;6681;53.254;10.398;2023-06-10T01:20:24;15.80;99.90
13231;DHT22;6681;53.254;10.398;2023-06-10T01:22:49;15.70;99.90
13231;DHT22;6681;53.254;10.398;2023-06-10T01:25:17;15.80;16.20
13231;DHT22;6681;53.254;10.398;2023-06-10T01:27:44;15.90;1.00
13231;DHT22;6681;53.254;10.398;2023-06-10T01:30:15;15.90;99.90
13231;DHT22;6681;53.254;10.398;2023-06-10T01:32:45;15.90;99.90
13231;DHT22;6681;53.254;10.398;2023-06-10T01:35:14;15.80;12.80
13231;DHT22;6681;53.254;10.398;2023-06-10T01:37:40;15.80;82.10
13231;DHT22;6681;53.254;10.398;2023-06-10T01:40:08;15.60;99.90
13231;DHT22;6681;53.254;10.398;2023-06-10T01:42:34;15.70;99.90
13231;DHT22;6681;53.254;10.398;2023-06-10T01:45:00;15.60;99.90
13231;DHT22;6681;53.254;10.398;2023-06-10T01:47:26;15.60;99.90
13231;DHT22;6681;53.254;10.398;2023-06-10T01:49:51;15.50;99.90
13231;DHT22;6681;53.254;10.398;2023-06-10T01:52:17;15.40;99.90
13231;DHT22;6681;53.254;10.398;2023-06-10T01:54:43;15.40;99.90
13231;DHT22;6681;53.254;10.398;2023-06-10T01:57:09;15.40;99.90
13231;DHT22;6681;53.254;10.398;2023-06-10T01:59:35;15.40;99.90
13231;DHT22;6681;53.254;10.398;2023-06-10T02:02:02;15.40;99.90
13231;DHT22;6681;53.254;10.398;2023-06-10T02:04:27;15.50;99.90
13231;DHT22;6681;53.254;10.398;2023-06-10T02:06:53;15.50;99.90
13231;DHT22;6681;53.254;10.398;2023-06-10T02:09:19;15.50;99.90
13231;DHT22;6681;53.254;10.398;2023-06-10T02:11:44;15.40;99.90
13231;DHT22;6681;53.254;10.398;2023-06-10T02:14:10;15.50;99.90
13231;DHT22;6681;53.254;10.398;2023-06-10T02:16:35;15.50;99.90
13231;DHT22;6681;53.254;10.398;2023-06-10T02:19:01;15.40;99.90
13231;DHT22;6681;53.254;10.398;2023-06-10T02:21:31;15.50;99.90
13231;DHT22;6681;53.254;10.398;2023-06-10T02:23:56;15.50;99.90
13231;DHT22;6681;53.254;10.398;2023-06-10T02:26:22;15.50;99.90
13231;DHT22;6681;53.254;10.398;2023-06-10T02:28:48;15.50;99.90
13231;DHT22;6681;53.254;10.398;2023-06-10T02:31:14;15.50;99.90
13231;DHT22;6681;53.254;10.398;2023-06-10T02:33:39;15.50;99.90
13231;DHT22;6681;53.254;10.398;2023-06-10T02:36:06;15.50;99.90
13231;DHT22;6681;53.254;10.398;2023-06-10T02:38:31;15.40;99.90
13231;DHT22;6681;53.254;10.398;2023-06-10T02:40:57;15.40;99.90
13231;DHT22;6681;53.254;10.398;2023-06-10T02:43:23;15.50;99.90
13231;DHT22;6681;53.254;10.398;2023-06-10T02:45:48;15.40;99.90
13231;DHT22;6681;53.254;10.398;2023-06-10T02:48:14;15.40;99.90
13231;DHT22;6681;53.254;10.398;2023-06-10T02:50:39;15.40;99.90
13231;DHT22;6681;53.254;10.398;2023-06-10T02:53:05;15.40;99.90
13231;DHT22;6681;53.254;10.398;2023-06-10T02:55:31;15.40;99.90
13231;DHT22;6681;53.254;10.398;2023-06-10T02:57:57;15.50;99.90
13231;DHT22;6681;53.254;10.398;2023-06-10T03:00:23;15.40;99.90
13231;DHT22;6681;53.254;10.398;2023-06-10T03:02:49;15.40;99.90
13231;DHT22;6681;53.254;10.398;2023-06-10T03:05:14;15.40;99.90
13231;DHT22;6681;53.254;10.398;2023-06-10T03:07:40;15.40;99.90
13231;DHT22;6681;53.254;10.398;2023-06-10T03:10:06;15.40;99.90
13231;DHT22;6681;53.254;10.398;2023-06-10T03:12:32;15.40;15.00
13231;DHT22;6681;53.254;10.398;2023-06-10T03:14:58;15.50;99.90
13231;DHT22;6681;53.254;10.398;2023-06-10T03:17:23;15.40;99.90
13231;DHT22;6681;53.254;10.398;2023-06-10T03:19:49;15.40;45.20
13231;DHT22;6681;53.254;10.398;2023-06-10T03:22:16;15.50;1.00
13231;DHT22;6681;53.254;10.398;2023-06-10T03:24:42;15.40;24.40
13231;DHT22;6681;53.254;10.398;2023-06-10T03:27:09;15.40;99.90
13231;DHT22;6681;53.254;10.398;2023-06-10T03:29:37;15.30;99.90
13231;DHT22;6681;53.254;10.398;2023-06-10T03:32:03;15.40;99.90
13231;DHT22;6681;53.254;10.398;2023-06-10T03:34:29;15.40;99.90
13231;DHT22;6681;53.254;10.398;2023-06-10T03:36:58;15.40;1.00
13231;DHT22;6681;53.254;10.398;2023-06-10T03:39:24;15.40;1.00
13231;DHT22;6681;53.254;10.398;2023-06-10T03:41:50;15.40;1.00
13231;DHT22;6681;53.254;10.398;2023-06-10T03:44:16;15.40;1.00
13231;DHT22;6681;53.254;10.398;2023-06-10T03:46:41;15.50;33.60
13231;DHT22;6681;53.254;10.398;2023-06-10T03:49:07;15.40;1.00
13231;DHT22;6681;53.254;10.398;2023-06-10T03:51:33;15.40;75.40
13231;DHT22;6681;53.254;10.398;2023-06-10T03:53:58;15.30;39.70
13231;DHT22;6681;53.254;10.398;2023-06-10T03:56:24;15.30;99.90
13231;DHT22;6681;53.254;10.398;2023-06-10T03:58:51;15.30;67.50
13231;DHT22;6681;53.254;10.398;2023-06-10T04:01:16;15.30;1.00
13231;DHT22;6681;53.254;10.398;2023-06-10T04:03:46;15.40;99.90
13231;DHT22;6681;53.254;10.398;2023-06-10T04:06:14;15.40;1.00
13231;DHT22;6681;53.254;10.398;2023-06-10T04:08:40;15.30;55.10
13231;DHT22;6681;53.254;10.398;2023-06-10T04:11:06;15.30;99.90
13231;DHT22;6681;53.254;10.398;2023-06-10T04:13:31;15.40;99.90
13231;DHT22;6681;53.254;10.398;2023-06-10T04:15:57;15.40;33.50
13231;DHT22;6681;53.254;10.398;2023-06-10T04:18:22;15.40;1.00
13231;DHT22;6681;53.254;10.398;2023-06-10T04:20:48;15.40;1.00
13231;DHT22;6681;53.254;10.398;2023-06-10T04:23:14;15.40;21.90
13231;DHT22;6681;53.254;10.398;2023-06-10T04:25:39;15.40;14.00
13231;DHT22;6681;53.254;10.398;2023-06-10T04:28:05;15.40;1.00
13231;DHT22;6681;53.254;10.398;2023-06-10T04:30:31;15.40;11.30
13231;DHT22;6681;53.254;10.398;2023-06-10T04:32:57;15.30;1.00
13231;DHT22;6681;53.254;10.398;2023-06-10T04:35:22;15.40;66.60
13231;DHT22;6681;53.254;10.398;2023-06-10T04:37:48;15.30;26.30
13231;DHT22;6681;53.254;10.398;2023-06-10T04:40:13;15.40;5.10
13231;DHT22;6681;53.254;10.398;2023-06-10T04:42:41;15.40;54.30
13231;DHT22;6681;53.254;10.398;2023-06-10T04:45:07;15.40;1.00
13231;DHT22;6681;53.254;10.398;2023-06-10T04:47:33;15.50;1.00
13231;DHT22;6681;53.254;10.398;2023-06-10T04:50:00;15.50;1.00
13231;DHT22;6681;53.254;10.398;2023-06-10T04:52:26;15.50;52.80
13231;DHT22;6681;53.254;10.398;2023-06-10T04:54:53;15.50;1.00
13231;DHT22;6681;53.254;10.398;2023-06-10T04:57:19;15.50;99.90
13231;DHT22;6681;53.254;10.398;2023-06-10T04:59:46;15.60;13.20
13231;DHT22;6681;53.254;10.398;2023-06-10T05:02:11;15.60;1.00
13231;DHT22;6681;53.254;10.398;2023-06-10T05:04:37;15.50;56.20
13231;DHT22;6681;53.254;10.398;2023-06-10T05:07:03;15.50;99.90
13231;DHT22;6681;53.254;10.398;2023-06-10T05:09:29;15.50;99.90
13231;DHT22;6681;53.254;10.398;2023-06-10T05:11:55;15.50;99.90
13231;DHT22;6681;53.254;10.398;2023-06-10T05:14:21;15.50;50.10
13231;DHT22;6681;53.254;10.398;2023-06-10T05:16:48;15.50;99.90
13231;DHT22;6681;53.254;10.398;2023-06-10T05:19:14;15.60;99.90
13231;DHT22;6681;53.254;10.398;2023-06-10T05:21:41;15.60;99.90
13231;DHT22;6681;53.254;10.398;2023-06-10T05:24:07;15.70;99.90
13231;DHT22;6681;53.254;10.398;2023-06-10T05:26:33;18.40;1.00
13231;DHT22;6681;53.254;10.398;2023-06-10T05:29:03;15.70;1.00
13231;DHT22;6681;53.254;10.398;2023-06-10T05:31:29;15.80;1.00
13231;DHT22;6681;53.254;10.398;2023-06-10T05:33:55;15.80;88.10
13231;DHT22;6681;53.254;10.398;2023-06-10T05:36:20;15.80;99.90
13231;DHT22;6681;53.254;10.398;2023-06-10T05:38:46;15.80;99.90
13231;DHT22;6681;53.254;10.398;2023-06-10T05:41:12;15.80;93.20
13231;DHT22;6681;53.254;10.398;2023-06-10T05:43:37;15.80;99.90
13231;DHT22;6681;53.254;10.398;2023-06-10T05:46:03;15.70;99.90
13231;DHT22;6681;53.254;10.398;2023-06-10T05:48:29;15.70;99.90
13231;DHT22;6681;53.254;10.398;2023-06-10T05:50:54;15.80;99.90
13231;DHT22;6681;53.254;10.398;2023-06-10T05:53:20;15.80;99.90
13231;DHT22;6681;53.254;10.398;2023-06-10T05:55:46;15.80;99.90
13231;DHT22;6681;53.254;10.398;2023-06-10T05:58:14;15.80;99.90
13231;DHT22;6681;53.254;10.398;2023-06-10T06:00:40;15.80;99.90
13231;DHT22;6681;53.254;10.398;2023-06-10T06:03:09;15.80;99.90
13231;DHT22;6681;53.254;10.398;2023-06-10T06:05:36;15.80;99.90
13231;DHT22;6681;53.254;10.398;2023-06-10T06:08:12;15.90;99.90
13231;DHT22;6681;53.254;10.398;2023-06-10T06:10:46;15.90;99.90
13231;DHT22;6681;53.254;10.398;2023-06-10T06:13:13;16.00;99.90
13231;DHT22;6681;53.254;10.398;2023-06-10T06:15:39;16.00;1.00
13231;DHT22;6681;53.254;10.398;2023-06-10T06:18:04;16.00;6.00
13231;DHT22;6681;53.254;10.398;2023-06-10T06:20:30;16.10;1.00
13231;DHT22;6681;53.254;10.398;2023-06-10T06:22:56;16.10;99.90
13231;DHT22;6681;53.254;10.398;2023-06-10T06:25:21;16.20;26.60
13231;DHT22;6681;53.254;10.398;2023-06-10T06:27:47;16.20;1.00
13231;DHT22;6681;53.254;10.398;2023-06-10T06:30:13;16.30;29.60
13231;DHT22;6681;53.254;10.398;2023-06-10T06:32:38;16.30;99.90
13231;DHT22;6681;53.254;10.398;2023-06-10T06:35:04;16.40;1.00
13231;DHT22;6681;53.254;10.398;2023-06-10T06:37:33;16.40;14.50
13231;DHT22;6681;53.254;10.398;2023-06-10T06:39:59;16.50;99.90
13231;DHT22;6681;53.254;10.398;2023-06-10T06:42:25;16.50;99.90
13231;DHT22;6681;53.254;10.398;2023-06-10T06:44:50;16.60;1.00
13231;DHT22;6681;53.254;10.398;2023-06-10T06:47:16;16.60;1.00
13231;DHT22;6681;53.254;10.398;2023-06-10T06:49:45;16.70;64.00
13231;DHT22;6681;53.254;10.398;2023-06-10T06:52:11;16.80;1.00
13231;DHT22;6681;53.254;10.398;2023-06-10T06:54:37;16.90;14.80
13231;DHT22;6681;53.254;10.398;2023-06-10T06:57:02;17.00;1.00
13231;DHT22;6681;53.254;10.398;2023-06-10T06:59:28;17.10;1.00
13231;DHT22;6681;53.254;10.398;2023-06-10T07:01:54;17.10;1.00
13231;DHT22;6681;53.254;10.398;2023-06-10T07:04:20;17.20;1.00
13231;DHT22;6681;53.254;10.398;2023-06-10T07:06:49;16.70;1.00
13231;DHT22;6681;53.254;10.398;2023-06-10T07:09:14;17.30;1.00
13231;DHT22;6681;53.254;10.398;2023-06-10T07:11:40;17.40;1.00
13231;DHT22;6681;53.254;10.398;2023-06-10T07:14:06;17.40;1.00
13231;DHT22;6681;53.254;10.398;2023-06-10T07:16:32;17.40;1.00
13231;DHT22;6681;53.254;10.398;2023-06-10T07:18:58;17.60;1.00
13231;DHT22;6681;53.254;10.398;2023-06-10T07:21:24;17.70;1.00
13231;DHT22;6681;53.254;10.398;2023-06-10T07:23:49;17.70;1.00
13231;DHT22;6681;53.254;10.398;2023-06-10T07:26:19;17.80;1.00
13231;DHT22;6681;53.254;10.398;2023-06-10T07:28:44;17.90;1.00
13231;DHT22;6681;53.254;10.398;2023-06-10T07:31:10;18.00;1.00
13231;DHT22;6681;53.254;10.398;2023-06-10T07:33:37;18.00;1.00
13231;DHT22;6681;53.254;10.398;2023-06-10T07:36:05;18.10;1.00
13231;DHT22;6681;53.254;10.398;2023-06-10T07:38:31;18.20;99.90
13231;DHT22;6681;53.254;10.398;2023-06-10T07:40:56;18.30;99.90
13231;DHT22;6681;53.254;10.398;2023-06-10T07:43:22;18.30;99.90
13231;DHT22;6681;53.254;10.398;2023-06-10T07:45:47;18.40;99.90
13231;DHT22;6681;53.254;10.398;2023-06-10T07:48:13;18.50;99.90
13231;DHT22;6681;53.254;10.398;2023-06-10T07:50:39;18.60;99.90
13231;DHT22;6681;53.254;10.398;2023-06-10T07:53:05;18.60;99.90
13231;DHT22;6681;53.254;10.398;2023-06-10T07:55:31;18.80;99.90
13231;DHT22;6681;53.254;10.398;2023-06-10T07:57:57;18.80;99.90
13231;DHT22;6681;53.254;10.398;2023-06-10T08:00:22;18.90;25.20
13231;DHT22;6681;53.254;10.398;2023-06-10T08:02:48;19.00;1.00
13231;DHT22;6681;53.254;10.398;2023-06-10T08:05:13;19.00;9.10
13231;DHT22;6681;53.254;10.398;2023-06-10T08:07:39;19.10;93.80
13231;DHT22;6681;53.254;10.398;2023-06-10T08:10:06;19.20;1.00
13231;DHT22;6681;53.254;10.398;2023-06-10T08:12:32;19.30;1.00
13231;DHT22;6681;53.254;10.398;2023-06-10T08:14:58;19.40;1.00
13231;DHT22;6681;53.254;10.398;2023-06-10T08:17:24;19.50;1.00
13231;DHT22;6681;53.254;10.398;2023-06-10T08:19:49;19.60;1.00
13231;DHT22;6681;53.254;10.398;2023-06-10T08:22:15;19.70;88.50
13231;DHT22;6681;53.254;10.398;2023-06-10T08:24:41;19.80;99.90
13231;DHT22;6681;53.254;10.398;2023-06-10T08:27:07;19.90;99.90
13231;DHT22;6681;53.254;10.398;2023-06-10T08:29:32;19.90;1.00
13231;DHT22;6681;53.254;10.398;2023-06-10T08:31:58;20.00;99.90
13231;DHT22;6681;53.254;10.398;2023-06-10T08:34:24;20.20;99.90
13231;DHT22;6681;53.254;10.398;2023-06-10T08:36:50;20.30;1.00
13231;DHT22;6681;53.254;10.398;2023-06-10T08:39:20;20.40;1.00
13231;DHT22;6681;53.254;10.398;2023-06-10T08:41:58;20.60;99.90
13231;DHT22;6681;53.254;10.398;2023-06-10T08:44:29;20.70;99.90
13231;DHT22;6681;53.254;10.398;2023-06-10T08:47:00;20.80;99.90
13231;DHT22;6681;53.254;10.398;2023-06-10T08:49:27;20.90;99.90
13231;DHT22;6681;53.254;10.398;2023-06-10T08:52:00;21.10;99.90
13231;DHT22;6681;53.254;10.398;2023-06-10T08:54:30;21.10;99.90
13231;DHT22;6681;53.254;10.398;2023-06-10T08:56:59;21.30;1.00
13231;DHT22;6681;53.254;10.398;2023-06-10T08:59:25;21.40;99.90
13231;DHT22;6681;53.254;10.398;2023-06-10T09:01:52;21.50;1.00
13231;DHT22;6681;53.254;10.398;2023-06-10T09:04:19;21.60;99.90
13231;DHT22;6681;53.254;10.398;2023-06-10T09:06:46;21.70;99.90
13231;DHT22;6681;53.254;10.398;2023-06-10T09:09:14;21.80;1.00
13231;DHT22;6681;53.254;10.398;2023-06-10T09:11:42;21.90;99.90
13231;DHT22;6681;53.254;10.398;2023-06-10T09:14:08;21.90;99.90
13231;DHT22;6681;53.254;10.398;2023-06-10T09:16:34;22.10;99.90
13231;DHT22;6681;53.254;10.398;2023-06-10T09:18:59;22.20;99.90
13231;DHT22;6681;53.254;10.398;2023-06-10T09:21:25;22.30;1.00
13231;DHT22;6681;53.254;10.398;2023-06-10T09:23:52;22.40;1.00
13231;DHT22;6681;53.254;10.398;2023-06-10T09:26:18;22.50;1.00
13231;DHT22;6681;53.254;10.398;2023-06-10T09:28:49;22.60;1.00
13231;DHT22;6681;53.254;10.398;2023-06-10T09:31:16;22.70;1.00
13231;DHT22;6681;53.254;10.398;2023-06-10T09:33:44;22.80;99.90
13231;DHT22;6681;53.254;10.398;2023-06-10T09:36:10;22.90;99.90
13231;DHT22;6681;53.254;10.398;2023-06-10T09:38:36;23.00;1.00
13231;DHT22;6681;53.254;10.398;2023-06-10T09:41:03;23.10;90.90
13231;DHT22;6681;53.254;10.398;2023-06-10T09:43:43;23.10;99.90
13231;DHT22;6681;53.254;10.398;2023-06-10T09:48:43;23.40;1.00
13231;DHT22;6681;53.254;10.398;2023-06-10T09:51:10;23.40;99.90
13231;DHT22;6681;53.254;10.398;2023-06-10T09:53:36;23.50;1.00
13231;DHT22;6681;53.254;10.398;2023-06-10T09:56:02;23.60;99.90
13231;DHT22;6681;53.254;10.398;2023-06-10T09:58:35;23.70;99.90
13231;DHT22;6681;53.254;10.398;2023-06-10T10:01:05;23.80;10.70
13231;DHT22;6681;53.254;10.398;2023-06-10T10:03:31;23.90;1.00
13231;DHT22;6681;53.254;10.398;2023-06-10T10:06:00;24.00;1.00
13231;DHT22;6681;53.254;10.398;2023-06-10T10:08:26;24.00;1.00
13231;DHT22;6681;53.254;10.398;2023-06-10T10:10:52;24.10;97.60
13231;DHT22;6681;53.254;10.398;2023-06-10T10:13:18;24.40;1.00
13231;DHT22;6681;53.254;10.398;2023-06-10T10:15:45;24.40;1.00
13231;DHT22;6681;53.254;10.398;2023-06-10T10:18:14;24.60;1.00
13231;DHT22;6681;53.254;10.398;2023-06-10T10:20:50;24.70;1.00
13231;DHT22;6681;53.254;10.398;2023-06-10T10:23:31;24.70;99.90
13231;DHT22;6681;53.254;10.398;2023-06-10T10:26:00;24.80;99.90
13231;DHT22;6681;53.254;10.398;2023-06-10T10:28:33;25.00;99.90
13231;DHT22;6681;53.254;10.398;2023-06-10T10:31:08;25.10;99.90
13231;DHT22;6681;53.254;10.398;2023-06-10T10:33:55;25.30;99.90
13231;DHT22;6681;53.254;10.398;2023-06-10T10:36:23;25.30;8.60
13231;DHT22;6681;53.254;10.398;2023-06-10T10:38:49;25.50;99.90
13231;DHT22;6681;53.254;10.398;2023-06-10T10:41:15;25.60;1.00
13231;DHT22;6681;53.254;10.398;2023-06-10T10:43:43;25.60;1.00
13231;DHT22;6681;53.254;10.398;2023-06-10T10:46:17;25.70;1.00
13231;DHT22;6681;53.254;10.398;2023-06-10T10:48:43;25.90;1.00
13231;DHT22;6681;53.254;10.398;2023-06-10T10:51:10;25.90;1.00
13231;DHT22;6681;53.254;10.398;2023-06-10T10:53:39;26.00;1.00
13231;DHT22;6681;53.254;10.398;2023-06-10T10:56:16;26.10;1.00
13231;DHT22;6681;53.254;10.398;2023-06-10T10:59:04;26.20;1.00
13231;DHT22;6681;53.254;10.398;2023-06-10T11:01:48;26.30;1.00
13231;DHT22;6681;53.254;10.398;2023-06-10T11:04:17;26.40;1.00
13231;DHT22;6681;53.254;10.398;2023-06-10T11:06:52;26.50;1.00
13231;DHT22;6681;53.254;10.398;2023-06-10T11:09:28;26.60;99.90
13231;DHT22;6681;53.254;10.398;2023-06-10T11:11:57;26.70;99.90
13231;DHT22;6681;53.254;10.398;2023-06-10T11:14:27;26.90;99.90
13231;DHT22;6681;53.254;10.398;2023-06-10T11:16:56;27.00;99.90
13231;DHT22;6681;53.254;10.398;2023-06-10T11:19:35;27.10;99.90
13231;DHT22;6681;53.254;10.398;2023-06-10T11:22:08;27.30;99.90
13231;DHT22;6681;53.254;10.398;2023-06-10T11:24:35;27.50;99.90
13231;DHT22;6681;53.254;10.398;2023-06-10T11:32:31;27.80;99.90
13231;DHT22;6681;53.254;10.398;2023-06-10T11:34:57;27.90;99.90
13231;DHT22;6681;53.254;10.398;2023-06-10T11:37:23;28.00;99.90
13231;DHT22;6681;53.254;10.398;2023-06-10T11:39:56;28.00;90.50
13231;DHT22;6681;53.254;10.398;2023-06-10T11:42:22;28.10;99.90
13231;DHT22;6681;53.254;10.398;2023-06-10T11:44:52;28.30;99.90
13231;DHT22;6681;53.254;10.398;2023-06-10T11:47:19;28.50;99.80
13231;DHT22;6681;53.254;10.398;2023-06-10T11:49:46;28.60;82.40
13231;DHT22;6681;53.254;10.398;2023-06-10T11:52:26;28.50;21.30
13231;DHT22;6681;53.254;10.398;2023-06-10T11:54:54;28.50;69.70
13231;DHT22;6681;53.254;10.398;2023-06-10T11:57:20;28.70;14.50
13231;DHT22;6681;53.254;10.398;2023-06-10T11:59:46;28.70;17.70
13231;DHT22;6681;53.254;10.398;2023-06-10T12:02:16;28.90;15.30
13231;DHT22;6681;53.254;10.398;2023-06-10T12:04:44;29.10;1.00
13231;DHT22;6681;53.254;10.398;2023-06-10T12:07:17;28.90;1.00
13231;DHT22;6681;53.254;10.398;2023-06-10T12:09:44;29.00;1.00
13231;DHT22;6681;53.254;10.398;2023-06-10T12:12:10;29.20;1.00
13231;DHT22;6681;53.254;10.398;2023-06-10T12:14:56;29.40;1.00
13231;DHT22;6681;53.254;10.398;2023-06-10T12:17:43;29.40;1.00
13231;DHT22;6681;53.254;10.398;2023-06-10T12:20:27;29.30;1.00
13231;DHT22;6681;53.254;10.398;2023-06-10T12:22:53;29.50;1.00
13231;DHT22;6681;53.254;10.398;2023-06-10T12:25:24;29.40;1.00
13231;DHT22;6681;53.254;10.398;2023-06-10T12:27:53;29.50;1.00
13231;DHT22;6681;53.254;10.398;2023-06-10T12:30:19;29.60;1.00
13231;DHT22;6681;53.254;10.398;2023-06-10T12:32:46;29.80;1.00
13231;DHT22;6681;53.254;10.398;2023-06-10T12:35:17;29.90;1.00
13231;DHT22;6681;53.254;10.398;2023-06-10T12:40:30;30.40;1.00
13231;DHT22;6681;53.254;10.398;2023-06-10T12:42:57;30.40;1.00
13231;DHT22;6681;53.254;10.398;2023-06-10T12:45:30;30.40;1.00
13231;DHT22;6681;53.254;10.398;2023-06-10T12:48:07;30.40;1.00
13231;DHT22;6681;53.254;10.398;2023-06-10T12:50:35;30.60;1.00
13231;DHT22;6681;53.254;10.398;2023-06-10T12:53:02;30.50;1.00
13231;DHT22;6681;53.254;10.398;2023-06-10T12:55:28;30.30;1.00
13231;DHT22;6681;53.254;10.398;2023-06-10T12:57:54;30.30;1.00
13231;DHT22;6681;53.254;10.398;2023-06-10T13:00:20;30.40;1.00
13231;DHT22;6681;53.254;10.398;2023-06-10T13:02:48;30.40;1.00
13231;DHT22;6681;53.254;10.398;2023-06-10T13:05:14;30.70;1.00
13231;DHT22;6681;53.254;10.398;2023-06-10T13:07:39;31.00;1.00
13231;DHT22;6681;53.254;10.398;2023-06-10T13:10:07;31.10;1.00
13231;DHT22;6681;53.254;10.398;2023-06-10T13:12:33;31.20;1.00
13231;DHT22;6681;53.254;10.398;2023-06-10T13:14:58;31.50;1.00
13231;DHT22;6681;53.254;10.398;2023-06-10T13:17:24;31.50;1.00
13231;DHT22;6681;53.254;10.398;2023-06-10T13:19:50;31.50;1.00
13231;DHT22;6681;53.254;10.398;2023-06-10T13:22:16;31.50;1.00
13231;DHT22;6681;53.254;10.398;2023-06-10T13:24:41;31.60;1.00
13231;DHT22;6681;53.254;10.398;2023-06-10T13:27:09;31.70;1.00
13231;DHT22;6681;53.254;10.398;2023-06-10T13:29:34;31.90;1.00
13231;DHT22;6681;53.254;10.398;2023-06-10T13:32:00;32.10;1.00
13231;DHT22;6681;53.254;10.398;2023-06-10T13:34:25;32.10;1.00
13231;DHT22;6681;53.254;10.398;2023-06-10T13:36:52;32.10;1.00
13231;DHT22;6681;53.254;10.398;2023-06-10T13:39:18;32.10;1.00
13231;DHT22;6681;53.254;10.398;2023-06-10T13:41:43;32.00;1.00
13231;DHT22;6681;53.254;10.398;2023-06-10T13:44:09;32.20;1.00
13231;DHT22;6681;53.254;10.398;2023-06-10T13:46:34;32.30;1.00
13231;DHT22;6681;53.254;10.398;2023-06-10T13:49:00;32.30;1.00
13231;DHT22;6681;53.254;10.398;2023-06-10T13:51:26;32.50;1.00
13231;DHT22;6681;53.254;10.398;2023-06-10T13:53:51;32.30;1.00
13231;DHT22;6681;53.254;10.398;2023-06-10T13:56:18;32.10;1.00
13231;DHT22;6681;53.254;10.398;2023-06-10T13:58:43;32.10;1.00
13231;DHT22;6681;53.254;10.398;2023-06-10T14:01:10;31.50;1.00
13231;DHT22;6681;53.254;10.398;2023-06-10T14:03:36;31.40;1.00
13231;DHT22;6681;53.254;10.398;2023-06-10T14:06:01;31.70;1.00
13231;DHT22;6681;53.254;10.398;2023-06-10T14:08:29;32.00;1.00
13231;DHT22;6681;53.254;10.398;2023-06-10T14:10:55;32.10;1.00
13231;DHT22;6681;53.254;10.398;2023-06-10T14:13:20;31.90;1.00
13231;DHT22;6681;53.254;10.398;2023-06-10T14:15:46;32.10;1.00
13231;DHT22;6681;53.254;10.398;2023-06-10T14:18:12;31.60;1.00
13231;DHT22;6681;53.254;10.398;2023-06-10T14:20:37;31.30;1.00
13231;DHT22;6681;53.254;10.398;2023-06-10T14:23:03;31.00;1.00
13231;DHT22;6681;53.254;10.398;2023-06-10T14:25:28;30.70;1.00
13231;DHT22;6681;53.254;10.398;2023-06-10T14:27:54;30.60;1.00
13231;DHT22;6681;53.254;10.398;2023-06-10T14:30:20;30.60;1.00
13231;DHT22;6681;53.254;10.398;2023-06-10T14:32:45;30.70;1.00
13231;DHT22;6681;53.254;10.398;2023-06-10T14:35:11;30.60;1.00
13231;DHT22;6681;53.254;10.398;2023-06-10T14:37:37;30.80;1.00
13231;DHT22;6681;53.254;10.398;2023-06-10T14:40:04;31.00;1.00
13231;DHT22;6681;53.254;10.398;2023-06-10T14:42:31;31.20;1.00
13231;DHT22;6681;53.254;10.398;2023-06-10T14:44:57;31.20;1.00
13231;DHT22;6681;53.254;10.398;2023-06-10T14:47:23;31.00;1.00
13231;DHT22;6681;53.254;10.398;2023-06-10T14:49:49;31.00;1.00
13231;DHT22;6681;53.254;10.398;2023-06-10T14:52:15;31.40;1.00
13231;DHT22;6681;53.254;10.398;2023-06-10T14:54:41;31.50;1.00
13231;DHT22;6681;53.254;10.398;2023-06-10T14:57:06;31.40;1.00
13231;DHT22;6681;53.254;10.398;2023-06-10T14:59:33;31.10;1.00
13231;DHT22;6681;53.254;10.398;2023-06-10T15:01:59;31.00;1.00
13231;DHT22;6681;53.254;10.398;2023-06-10T15:04:26;30.90;1.00
13231;DHT22;6681;53.254;10.398;2023-06-10T15:06:52;31.00;1.00
13231;DHT22;6681;53.254;10.398;2023-06-10T15:09:18;30.80;1.00
13231;DHT22;6681;53.254;10.398;2023-06-10T15:11:43;30.50;1.00
13231;DHT22;6681;53.254;10.398;2023-06-10T15:14:09;30.40;1.00
13231;DHT22;6681;53.254;10.398;2023-06-10T15:16:35;30.20;1.00
13231;DHT22;6681;53.254;10.398;2023-06-10T15:19:00;30.60;1.00
13231;DHT22;6681;53.254;10.398;2023-06-10T15:21:26;29.20;1.00
13231;DHT22;6681;53.254;10.398;2023-06-10T15:23:52;31.10;1.00
13231;DHT22;6681;53.254;10.398;2023-06-10T15:26:18;31.30;1.00
13231;DHT22;6681;53.254;10.398;2023-06-10T15:28:44;31.30;1.00
13231;DHT22;6681;53.254;10.398;2023-06-10T15:31:09;31.10;1.00
13231;DHT22;6681;53.254;10.398;2023-06-10T15:33:35;30.90;1.00
13231;DHT22;6681;53.254;10.398;2023-06-10T15:36:01;30.90;1.00
13231;DHT22;6681;53.254;10.398;2023-06-10T15:38:27;30.70;1.00
13231;DHT22;6681;53.254;10.398;2023-06-10T15:40:52;30.50;1.00
13231;DHT22;6681;53.254;10.398;2023-06-10T15:43:19;30.20;1.00
13231;DHT22;6681;53.254;10.398;2023-06-10T15:45:44;30.00;1.00
13231;DHT22;6681;53.254;10.398;2023-06-10T15:48:10;30.00;1.00
13231;DHT22;6681;53.254;10.398;2023-06-10T15:50:35;29.90;1.00
13231;DHT22;6681;53.254;10.398;2023-06-10T15:53:01;29.80;1.00